Startpagina
METAR-TAF:

METAR-TAF

Vliegvelden :

Aéroport de Lille-Lesquin

Rijsel, Frankrijk

breedte: 50-34N, lengte: 003-06E, hoogte: 48 m

Actueel weer

Dit bericht is 16 minuten geleden gemaakt, om 22:00 UTC
Wind 6 kt uit het westen
Temperatuur 21°C
Vochtigheid 53%
Druk 1014 hPa
Zicht 10 km of meer

METAR: LFQQ 162200Z AUTO 26006KT 9999 ///TCU 21/11 Q1014 BECMG NSC

Tijdstip: 00:16 (22:16 UTC)

Verwachting

Dit bericht is 5 uur en het 16 minuten geleden gemaakt, om 17:00 UTC
Verwachting geldig van 16 om 18 UTC tot 17 om 24 UTC
Wind 5 kt uit het noordnoordwesten
Zicht 10 km of meer
geen wolken onder 1500 m en geen cumulonimbus
Kans 40%
van 17 om 03 UTC tot 17 om 06 UTC
Gebroken wolken op 800 ft
Wijzigt naar
van 17 om 06 UTC tot 17 om 08 UTC
Wind 12 kt uit het westen
Wijzigt naar
van 17 om 20 UTC tot 17 om 23 UTC
Wind 2 kt uit variabele richting

TAF: LFQQ 161700Z 1618/1724 33005KT CAVOK PROB40 1703/1706 BKN008 BECMG 1706/1708 27012KT BECMG 1720/1723 VRB02KT

Waarnemingen en weersverwachtingen van meer dan 4000 vliegvelden (METAR en TAF).

De beschikbare stations zijn de gele en rode punten op de kaart.

Ga met uw muis naar het station om de naam te zien.

Klik dan om waarnemingen en weersverwachtingen te zien.

kaart wijzigen: klik op de groene knoppen met een zwart kruis om in te zoomen, op de groene knop met een streepje om uit te zoomen of op de groene pijlen voor aangrenzende kaarten.


METAR-TAF: